createdAt,value
2022-09-15T00:00:12.197Z,99997.12
2022-09-15T00:00:42.600Z,99996.29
2022-09-15T00:01:13.018Z,99996.15
2022-09-15T00:01:43.522Z,99995.31
2022-09-15T00:02:14.035Z,99993.16
2022-09-15T00:02:44.535Z,99995.84
2022-09-15T00:03:14.937Z,99997.01
2022-09-15T00:03:45.326Z,99998.04
2022-09-15T00:04:15.748Z,99992.53
2022-09-15T00:04:46.165Z,99995.84
2022-09-15T00:05:16.597Z,99998.02
2022-09-15T00:05:47.020Z,99993.88
2022-09-15T00:06:17.449Z,99996.34
2022-09-15T00:06:47.868Z,99992.48
2022-09-15T00:07:18.290Z,99997.12
2022-09-15T00:07:48.707Z,99993.95
2022-09-15T00:08:19.132Z,99995.81
2022-09-15T00:08:49.551Z,99997.34
2022-09-15T00:09:19.968Z,99994.38
2022-09-15T00:09:50.391Z,99996.89
2022-09-15T00:10:20.835Z,99992.72
2022-09-15T00:10:51.253Z,99995.16
2022-09-15T00:11:21.683Z,99992.36
2022-09-15T00:11:52.096Z,99991.84
2022-09-15T00:12:22.517Z,99994.98
2022-09-15T00:12:52.936Z,99993.50
2022-09-15T00:13:23.358Z,99994.50
2022-09-15T00:13:53.778Z,99992.03
2022-09-15T00:14:24.198Z,99990.98
2022-09-15T00:14:54.618Z,99989.69
2022-09-15T00:15:25.065Z,99987.52
2022-09-15T00:15:55.471Z,99985.52
2022-09-15T00:16:25.975Z,99990.02
2022-09-15T00:16:56.458Z,99988.34
2022-09-15T00:17:26.850Z,99984.67
2022-09-15T00:17:57.270Z,99988.02
2022-09-15T00:18:27.690Z,99986.53
2022-09-15T00:18:58.117Z,99991.36
2022-09-15T00:19:28.532Z,99989.70
2022-09-15T00:19:58.957Z,99992.20
2022-09-15T00:20:29.388Z,99993.33
2022-09-15T00:20:59.811Z,99991.03
2022-09-15T00:21:30.230Z,99992.39
2022-09-15T00:22:00.656Z,99994.20
2022-09-15T00:22:31.075Z,99997.41
2022-09-15T00:23:01.498Z,99995.38
2022-09-15T00:23:31.922Z,99995.89
2022-09-15T00:24:02.343Z,99995.56
2022-09-15T00:24:32.764Z,99995.73
2022-09-15T00:25:03.180Z,99995.41
2022-09-15T00:25:33.614Z,99994.60
2022-09-15T00:26:04.031Z,99992.47
2022-09-15T00:26:34.450Z,99994.48
2022-09-15T00:27:04.870Z,99993.95
2022-09-15T00:27:35.288Z,99991.27
2022-09-15T00:28:05.711Z,99990.22
2022-09-15T00:28:36.129Z,99990.56
2022-09-15T00:29:06.548Z,99987.52
2022-09-15T00:29:36.966Z,99989.70
2022-09-15T00:30:07.388Z,99990.20
2022-09-15T00:30:37.884Z,99989.02
2022-09-15T00:31:08.332Z,99989.55
2022-09-15T00:31:38.747Z,99989.09
2022-09-15T00:32:09.167Z,99988.31
2022-09-15T00:32:39.594Z,99988.14
2022-09-15T00:33:10.014Z,99986.80
2022-09-15T00:33:40.435Z,99987.46
2022-09-15T00:34:10.865Z,99986.80
2022-09-15T00:34:41.290Z,99991.27
2022-09-15T00:35:11.701Z,99992.20
2022-09-15T00:35:42.151Z,99991.03
2022-09-15T00:36:12.572Z,99992.05
2022-09-15T00:36:42.990Z,99991.52
2022-09-15T00:37:13.413Z,99987.19
2022-09-15T00:37:43.832Z,99989.02
2022-09-15T00:38:14.272Z,99984.50
2022-09-15T00:38:44.675Z,99990.38
2022-09-15T00:39:15.104Z,99989.53
2022-09-15T00:39:45.571Z,99985.55
2022-09-15T00:40:16.047Z,99989.36
2022-09-15T00:40:46.420Z,99988.03
2022-09-15T00:41:16.842Z,99985.02
2022-09-15T00:41:47.260Z,99986.52
2022-09-15T00:42:17.684Z,99986.34
2022-09-15T00:42:48.097Z,99988.05
2022-09-15T00:43:18.544Z,99988.05
2022-09-15T00:43:48.962Z,99987.37
2022-09-15T00:44:19.385Z,99989.55
2022-09-15T00:44:49.802Z,99992.86
2022-09-15T00:45:20.220Z,99987.53
2022-09-15T00:45:50.769Z,99991.04
2022-09-15T00:46:21.252Z,99988.84
2022-09-15T00:47:04.309Z,99987.53
2022-09-15T00:47:27.039Z,99989.22
2022-09-15T00:47:57.462Z,99988.13
2022-09-15T00:48:27.880Z,99987.92
2022-09-15T00:48:58.306Z,99988.05
2022-09-15T00:49:28.725Z,99984.84
2022-09-15T00:49:59.570Z,99985.35
2022-09-15T00:50:29.979Z,99983.69
2022-09-15T00:51:00.404Z,99986.88
2022-09-15T00:51:30.823Z,99986.73
2022-09-15T00:52:01.243Z,99984.58
2022-09-15T00:52:31.665Z,99986.03
2022-09-15T00:53:02.082Z,99983.57
2022-09-15T00:53:32.508Z,99987.28
2022-09-15T00:54:02.931Z,99989.44
2022-09-15T00:54:33.343Z,99989.74
2022-09-15T00:55:03.762Z,99987.92
2022-09-15T00:55:34.182Z,99990.38
2022-09-15T00:56:04.628Z,99986.94
2022-09-15T00:56:35.058Z,99991.48
2022-09-15T00:57:05.478Z,99991.83
2022-09-15T00:57:35.898Z,99990.50
2022-09-15T00:58:06.321Z,99994.86
2022-09-15T00:58:36.735Z,99991.01
2022-09-15T00:59:07.156Z,99991.12
2022-09-15T00:59:37.574Z,99988.64
2022-09-15T01:00:07.996Z,99989.12
2022-09-15T01:00:38.416Z,99989.27
2022-09-15T01:01:08.987Z,99989.94
2022-09-15T01:01:39.416Z,99988.80
2022-09-15T01:02:09.903Z,99987.62
2022-09-15T01:02:40.360Z,99988.84
2022-09-15T01:03:10.736Z,99986.03
2022-09-15T01:03:41.153Z,99987.51
2022-09-15T01:04:11.575Z,99986.68
2022-09-15T01:04:42.005Z,99988.80
2022-09-15T01:05:12.422Z,99985.17
2022-09-15T01:05:42.844Z,99991.55
2022-09-15T01:06:13.284Z,99990.19
2022-09-15T01:06:43.706Z,99991.20
2022-09-15T01:07:14.128Z,99988.52
2022-09-15T01:07:44.558Z,99989.02
2022-09-15T01:08:14.977Z,99987.80
2022-09-15T01:08:45.408Z,99989.70
2022-09-15T01:09:15.818Z,99989.72
2022-09-15T01:09:46.242Z,99989.88
2022-09-15T01:10:16.660Z,99988.16
2022-09-15T01:10:47.083Z,99991.03
2022-09-15T01:11:17.532Z,99989.36
2022-09-15T01:11:47.965Z,99991.48
2022-09-15T01:12:18.385Z,99990.36
2022-09-15T01:12:48.809Z,99989.67
2022-09-15T01:13:19.231Z,99990.64
2022-09-15T01:13:49.654Z,99991.15
2022-09-15T01:14:20.074Z,99988.19
2022-09-15T01:14:50.497Z,99990.67
2022-09-15T01:15:20.918Z,99986.96
2022-09-15T01:15:51.338Z,99992.03
2022-09-15T01:16:21.822Z,99989.05
2022-09-15T01:16:52.232Z,99989.23
2022-09-15T01:17:22.625Z,99989.21
2022-09-15T01:17:53.051Z,99988.56
2022-09-15T01:18:23.469Z,99985.83
2022-09-15T01:18:53.888Z,99989.21
2022-09-15T01:19:24.313Z,99989.64
2022-09-15T01:19:54.735Z,99987.44
2022-09-15T01:20:25.152Z,99988.19
2022-09-15T01:20:55.573Z,99993.16
2022-09-15T01:21:26.002Z,99989.55
2022-09-15T01:21:58.858Z,99990.41
2022-09-15T01:22:29.421Z,99990.92
2022-09-15T01:22:59.844Z,99990.23
2022-09-15T01:23:30.259Z,99992.60
2022-09-15T01:24:00.682Z,99992.58
2022-09-15T01:24:31.102Z,99996.94
2022-09-15T01:25:01.538Z,99995.77
2022-09-15T01:25:31.944Z,99996.27
2022-09-15T01:26:02.363Z,99992.84
2022-09-15T01:26:32.794Z,99993.03
2022-09-15T01:27:18.523Z,99993.84
2022-09-15T01:27:42.419Z,99994.97
2022-09-15T01:28:13.293Z,99993.11
2022-09-15T01:28:43.984Z,99992.14
2022-09-15T01:29:14.368Z,99997.45
2022-09-15T01:29:44.785Z,99995.02
2022-09-15T01:30:15.208Z,99998.63
2022-09-15T01:30:45.621Z,100000.14
2022-09-15T01:31:16.085Z,99997.62
2022-09-15T01:31:46.566Z,99996.12
2022-09-15T01:32:16.961Z,99998.83
2022-09-15T01:32:47.480Z,99998.03
2022-09-15T01:33:17.890Z,100001.58
2022-09-15T01:33:48.312Z,99999.98
2022-09-15T01:34:18.733Z,100001.00
2022-09-15T01:34:49.154Z,99998.39
2022-09-15T01:35:19.575Z,100001.26
2022-09-15T01:35:49.995Z,99998.91
2022-09-15T01:36:20.418Z,99998.24
2022-09-15T01:36:51.007Z,100000.23
2022-09-15T01:37:21.429Z,100000.73
2022-09-15T01:37:51.853Z,100000.91
2022-09-15T01:38:22.269Z,99996.40
2022-09-15T01:38:52.857Z,99999.22
2022-09-15T01:39:23.360Z,100001.72
2022-09-15T01:39:53.809Z,99998.22
2022-09-15T01:40:24.368Z,100000.42
2022-09-15T01:40:54.791Z,99999.30
2022-09-15T01:41:25.211Z,99999.45
2022-09-15T01:41:55.644Z,99996.64
2022-09-15T01:42:26.067Z,99993.64
2022-09-15T01:42:56.494Z,99999.66
2022-09-15T01:43:26.913Z,99998.34
2022-09-15T01:43:57.331Z,99999.00
2022-09-15T01:44:27.753Z,99996.70
2022-09-15T01:44:58.169Z,99996.66
2022-09-15T01:45:28.597Z,99996.32
2022-09-15T01:45:59.073Z,99997.33
2022-09-15T01:46:29.460Z,100000.56
2022-09-15T01:46:59.917Z,100002.16
2022-09-15T01:47:30.313Z,99999.30
2022-09-15T01:48:00.733Z,100001.48
2022-09-15T01:48:31.150Z,99998.70
2022-09-15T01:49:01.570Z,99999.38
2022-09-15T01:49:31.992Z,99999.18
2022-09-15T01:50:02.410Z,99996.88
2022-09-15T01:50:32.835Z,99995.36
2022-09-15T01:51:03.255Z,100000.00
2022-09-15T01:51:33.685Z,100000.81
2022-09-15T01:52:04.283Z,99999.31
2022-09-15T01:52:34.703Z,99998.32
2022-09-15T01:53:05.121Z,99999.04
2022-09-15T01:53:35.537Z,99995.89
2022-09-15T01:54:05.956Z,99999.20
2022-09-15T01:54:36.376Z,99997.20
2022-09-15T01:55:06.799Z,100001.69
2022-09-15T01:55:37.223Z,100001.91
2022-09-15T01:56:07.635Z,100000.92
2022-09-15T01:56:38.054Z,100006.27
2022-09-15T01:57:08.496Z,100004.77
2022-09-15T01:57:38.911Z,100006.31
2022-09-15T01:58:09.330Z,100007.16
2022-09-15T01:58:39.754Z,100009.17
2022-09-15T01:59:10.168Z,100004.67
2022-09-15T01:59:40.591Z,100006.39
2022-09-15T02:00:11.009Z,100003.91
2022-09-15T02:00:41.427Z,100006.04
2022-09-15T02:01:11.903Z,100003.70
2022-09-15T02:01:42.395Z,100007.00
2022-09-15T02:02:12.910Z,100007.67
2022-09-15T02:02:43.308Z,100006.16
2022-09-15T02:03:13.733Z,100004.82
2022-09-15T02:03:44.158Z,100004.66
2022-09-15T02:04:14.580Z,100004.27
2022-09-15T02:04:44.998Z,100002.58
2022-09-15T02:05:15.417Z,100002.08
2022-09-15T02:05:45.839Z,100001.73
2022-09-15T02:06:16.260Z,100002.22
2022-09-15T02:06:46.690Z,99997.73
2022-09-15T02:07:17.133Z,100000.73
2022-09-15T02:07:47.553Z,99998.08
2022-09-15T02:08:17.974Z,99998.58
2022-09-15T02:08:48.405Z,99996.64
2022-09-15T02:09:18.823Z,99996.97
2022-09-15T02:09:49.246Z,99996.33
2022-09-15T02:10:19.667Z,99997.00
2022-09-15T02:10:50.086Z,99997.62
2022-09-15T02:11:20.502Z,99993.45
2022-09-15T02:11:50.922Z,99992.45
2022-09-15T02:12:21.355Z,99993.69
2022-09-15T02:12:51.768Z,99995.30
2022-09-15T02:13:22.187Z,99993.19
2022-09-15T02:13:52.679Z,99993.02
2022-09-15T02:14:23.077Z,99996.38
2022-09-15T02:14:53.498Z,99992.03
2022-09-15T02:15:23.931Z,99991.52
2022-09-15T02:15:54.349Z,99994.17
2022-09-15T02:16:24.806Z,99992.02
2022-09-15T02:16:55.273Z,99991.99
2022-09-15T02:17:25.713Z,99990.96
2022-09-15T02:17:56.110Z,99995.30
2022-09-15T02:18:26.531Z,99993.14
2022-09-15T02:18:56.950Z,99990.47
2022-09-15T02:19:27.370Z,99994.15
2022-09-15T02:19:57.793Z,99992.14
2022-09-15T02:20:28.214Z,99990.68
2022-09-15T02:20:58.633Z,99993.14
2022-09-15T02:21:29.053Z,99990.62
2022-09-15T02:21:59.473Z,99992.98
2022-09-15T02:22:29.904Z,99994.48
2022-09-15T02:23:00.322Z,99995.63
2022-09-15T02:23:30.745Z,99996.97
2022-09-15T02:24:01.175Z,99997.98
2022-09-15T02:24:31.595Z,99999.98
2022-09-15T02:25:02.019Z,99999.98
2022-09-15T02:25:32.436Z,100001.66
2022-09-15T02:26:02.854Z,100002.00
2022-09-15T02:26:33.275Z,100002.73
2022-09-15T02:27:03.694Z,100003.93
2022-09-15T02:27:34.126Z,100005.09
2022-09-15T02:28:04.551Z,100003.26
2022-09-15T02:28:34.971Z,100004.77
2022-09-15T02:29:05.387Z,100006.25
2022-09-15T02:29:35.806Z,100006.92
2022-09-15T02:30:06.225Z,100007.55
2022-09-15T02:30:36.643Z,100005.91
2022-09-15T02:31:07.125Z,100006.38
2022-09-15T02:31:37.545Z,100010.73
2022-09-15T02:32:08.022Z,100008.05
2022-09-15T02:32:38.448Z,100004.41
2022-09-15T02:33:08.848Z,100004.93
2022-09-15T02:33:39.270Z,100002.41
2022-09-15T02:34:09.687Z,100006.42
2022-09-15T02:34:40.110Z,100003.91
2022-09-15T02:35:10.527Z,100003.58
2022-09-15T02:35:40.950Z,99997.20
2022-09-15T02:36:11.374Z,100001.75
2022-09-15T02:36:41.791Z,100000.22
2022-09-15T02:37:12.210Z,99996.82
2022-09-15T02:37:42.647Z,99996.02
2022-09-15T02:38:13.066Z,99998.02
2022-09-15T02:38:43.487Z,99999.03
2022-09-15T02:39:13.905Z,99998.55
2022-09-15T02:39:44.467Z,99999.55
2022-09-15T02:40:14.950Z,99997.58
2022-09-15T02:40:45.324Z,99997.75
2022-09-15T02:41:15.745Z,100000.09
2022-09-15T02:41:46.164Z,99999.61
2022-09-15T02:42:16.585Z,99995.30
2022-09-15T02:42:47.021Z,99998.66
2022-09-15T02:43:17.441Z,99999.97
2022-09-15T02:43:47.865Z,100000.00
2022-09-15T02:44:18.286Z,99997.65
2022-09-15T02:44:48.702Z,99995.26
2022-09-15T02:45:19.189Z,99996.27
2022-09-15T02:45:49.638Z,99994.14
2022-09-15T02:46:20.018Z,99993.76
2022-09-15T02:46:50.430Z,99992.75
2022-09-15T02:47:20.852Z,99992.41
2022-09-15T02:47:51.319Z,99996.39
2022-09-15T02:48:21.719Z,99995.55
2022-09-15T02:48:52.138Z,99994.88
2022-09-15T02:49:22.563Z,99995.98
2022-09-15T02:49:52.979Z,99993.47
2022-09-15T02:50:23.399Z,99998.25
2022-09-15T02:50:53.823Z,99996.09
2022-09-15T02:51:24.239Z,99992.61
2022-09-15T02:51:54.670Z,99992.10
2022-09-15T02:52:25.097Z,99997.16
2022-09-15T02:52:55.552Z,99992.84
2022-09-15T02:53:25.973Z,99996.50
2022-09-15T02:53:56.392Z,99995.26
2022-09-15T02:54:26.814Z,99997.27
2022-09-15T02:54:57.231Z,99996.09
2022-09-15T02:55:27.669Z,99996.15
2022-09-15T02:55:58.070Z,99999.00
2022-09-15T02:56:28.491Z,99997.45
2022-09-15T02:56:58.909Z,99998.47
2022-09-15T02:57:29.335Z,99995.95
2022-09-15T02:57:59.762Z,99998.44
2022-09-15T02:58:30.180Z,99997.27
2022-09-15T02:59:00.602Z,99998.25
2022-09-15T02:59:31.020Z,99999.41
2022-09-15T03:00:01.442Z,100001.20
2022-09-15T03:00:31.946Z,100001.52
2022-09-15T03:01:02.378Z,99997.90
2022-09-15T03:01:32.800Z,100000.62
2022-09-15T03:02:03.295Z,99999.50
2022-09-15T03:02:33.674Z,100001.00
2022-09-15T03:03:04.133Z,100001.67
2022-09-15T03:03:34.535Z,100000.19
2022-09-15T03:04:04.956Z,99998.01
2022-09-15T03:04:35.375Z,99997.94
2022-09-15T03:05:05.792Z,99998.94
2022-09-15T03:05:36.213Z,99999.62
2022-09-15T03:06:06.631Z,99999.45
2022-09-15T03:06:37.056Z,99999.93
2022-09-15T03:07:07.480Z,99997.94
2022-09-15T03:07:37.906Z,99997.61
2022-09-15T03:08:08.332Z,99995.77
2022-09-15T03:08:38.757Z,99996.43
2022-09-15T03:09:09.174Z,99997.27
2022-09-15T03:09:39.591Z,99997.25
2022-09-15T03:10:10.015Z,99995.50
2022-09-15T03:10:40.435Z,100000.04
2022-09-15T03:11:10.852Z,99996.03
2022-09-15T03:11:41.270Z,99996.81
2022-09-15T03:12:11.696Z,99993.67
2022-09-15T03:12:42.117Z,99994.01
2022-09-15T03:13:12.542Z,99993.98
2022-09-15T03:13:42.963Z,99992.97
2022-09-15T03:14:13.388Z,99997.61
2022-09-15T03:14:43.804Z,99993.63
2022-09-15T03:15:14.221Z,99996.02
2022-09-15T03:15:44.642Z,99990.83
2022-09-15T03:16:15.106Z,99993.17
2022-09-15T03:16:45.590Z,99992.69
2022-09-15T03:17:16.012Z,99993.84
2022-09-15T03:17:46.431Z,99993.00
2022-09-15T03:18:16.884Z,99991.18
2022-09-15T03:18:47.285Z,99997.52
2022-09-15T03:19:17.705Z,99991.52
2022-09-15T03:19:48.123Z,99994.55
2022-09-15T03:20:18.546Z,99993.58
2022-09-15T03:20:48.973Z,99993.84
2022-09-15T03:21:19.394Z,99993.98
2022-09-15T03:21:49.812Z,99992.30
2022-09-15T03:22:20.233Z,99997.27
2022-09-15T03:22:50.668Z,99996.12
2022-09-15T03:23:21.105Z,99992.91
2022-09-15T03:23:51.690Z,99994.95
2022-09-15T03:24:22.203Z,99992.62
2022-09-15T03:24:52.623Z,99993.61
2022-09-15T03:25:23.040Z,99992.12
2022-09-15T03:25:53.459Z,99990.40
2022-09-15T03:26:23.882Z,99989.23
2022-09-15T03:26:54.307Z,99991.07
2022-09-15T03:27:24.724Z,99986.94
2022-09-15T03:27:55.145Z,99986.94
2022-09-15T03:28:25.575Z,99989.73
2022-09-15T03:28:55.999Z,99985.14
2022-09-15T03:29:26.416Z,99986.93
2022-09-15T03:29:56.837Z,99990.30
2022-09-15T03:30:27.259Z,99989.67
2022-09-15T03:30:57.675Z,99990.68
2022-09-15T03:31:28.226Z,99995.88
2022-09-15T03:31:58.706Z,99993.05
2022-09-15T03:32:29.094Z,99991.23
2022-09-15T03:32:59.513Z,99993.93
2022-09-15T03:33:29.968Z,99991.59
2022-09-15T03:34:00.372Z,99989.70
2022-09-15T03:34:30.816Z,99991.54
2022-09-15T03:35:01.228Z,99993.91
2022-09-15T03:35:31.648Z,99990.89
2022-09-15T03:36:02.078Z,99992.86
2022-09-15T03:36:32.498Z,99989.18
2022-09-15T03:37:02.919Z,99988.17
2022-09-15T03:37:33.342Z,99989.99
2022-09-15T03:38:03.758Z,99986.16
2022-09-15T03:38:34.199Z,99989.34
2022-09-15T03:39:04.613Z,99990.17
2022-09-15T03:39:35.036Z,99988.36
2022-09-15T03:40:05.591Z,99988.72
2022-09-15T03:40:35.977Z,99993.03
2022-09-15T03:41:06.406Z,99993.19
2022-09-15T03:41:36.818Z,99994.08
2022-09-15T03:42:07.238Z,99994.41
2022-09-15T03:42:37.663Z,99996.54
2022-09-15T03:43:08.077Z,99993.86
2022-09-15T03:43:38.513Z,99993.41
2022-09-15T03:44:08.934Z,99996.70
2022-09-15T03:44:39.357Z,99994.55
2022-09-15T03:45:09.774Z,99995.23
2022-09-15T03:45:40.288Z,99995.73
2022-09-15T03:46:10.739Z,99996.42
2022-09-15T03:46:41.111Z,99997.14
2022-09-15T03:47:11.528Z,99997.95
2022-09-15T03:47:41.950Z,99995.84
2022-09-15T03:48:12.380Z,99998.97
2022-09-15T03:48:42.833Z,99997.62
2022-09-15T03:49:13.233Z,99999.48
2022-09-15T03:49:43.657Z,99993.16
2022-09-15T03:50:14.079Z,99996.96
2022-09-15T03:50:44.497Z,99996.02
2022-09-15T03:51:14.916Z,99995.81
2022-09-15T03:51:45.335Z,99994.00
2022-09-15T03:52:15.754Z,99994.94
2022-09-15T03:52:46.173Z,99993.77
2022-09-15T03:53:16.595Z,99994.09
2022-09-15T03:53:47.037Z,99990.98
2022-09-15T03:54:17.457Z,99990.65
2022-09-15T03:54:47.877Z,99991.34
2022-09-15T03:55:18.311Z,99989.06
2022-09-15T03:55:48.715Z,99992.53
2022-09-15T03:56:19.135Z,99990.96
2022-09-15T03:56:49.554Z,99992.09
2022-09-15T03:57:19.974Z,99992.33
2022-09-15T03:57:50.396Z,99990.27
2022-09-15T03:58:20.830Z,99992.63
2022-09-15T03:58:51.261Z,99990.12
2022-09-15T03:59:21.675Z,99991.08
2022-09-15T03:59:52.098Z,99986.80
2022-09-15T04:00:22.520Z,99988.59
2022-09-15T04:00:52.965Z,99985.81
2022-09-15T04:01:23.466Z,99986.48
2022-09-15T04:01:53.945Z,99987.19
2022-09-15T04:02:24.434Z,99988.49
2022-09-15T04:02:54.789Z,99987.47
2022-09-15T04:03:25.205Z,99989.14
2022-09-15T04:03:55.659Z,99989.97
2022-09-15T04:04:26.056Z,99986.80
2022-09-15T04:04:56.475Z,99987.97
2022-09-15T04:05:26.895Z,99986.98
2022-09-15T04:05:57.331Z,99985.66
2022-09-15T04:06:27.751Z,99987.03
2022-09-15T04:06:58.173Z,99988.89
2022-09-15T04:07:28.588Z,99982.48
2022-09-15T04:07:59.015Z,99981.83
2022-09-15T04:08:29.437Z,99985.64
2022-09-15T04:09:00.032Z,99980.69
2022-09-15T04:09:30.452Z,99982.89
2022-09-15T04:10:00.871Z,99984.06
2022-09-15T04:10:31.292Z,99984.44
2022-09-15T04:11:01.713Z,99980.94
2022-09-15T04:11:32.133Z,99983.60
2022-09-15T04:12:02.558Z,99981.77
2022-09-15T04:12:32.973Z,99980.59
2022-09-15T04:13:03.392Z,99979.73
2022-09-15T04:13:33.823Z,99978.02
2022-09-15T04:14:04.270Z,99979.05
2022-09-15T04:14:34.678Z,99977.91
2022-09-15T04:15:05.098Z,99977.73
2022-09-15T04:15:35.530Z,99980.27
2022-09-15T04:16:06.128Z,99977.14
2022-09-15T04:16:36.605Z,99980.98
2022-09-15T04:17:06.996Z,99980.58
2022-09-15T04:17:37.419Z,99977.09
2022-09-15T04:18:07.851Z,99978.92
2022-09-15T04:18:38.276Z,99977.25
2022-09-15T04:19:08.735Z,99980.94
2022-09-15T04:19:39.133Z,99979.31
2022-09-15T04:20:09.555Z,99983.28
2022-09-15T04:20:39.973Z,99983.78
2022-09-15T04:21:10.391Z,99981.77
2022-09-15T04:21:40.810Z,99980.92
2022-09-15T04:22:15.543Z,99985.94
2022-09-15T04:22:46.565Z,99985.78
2022-09-15T04:23:16.986Z,99986.78
2022-09-15T04:23:47.418Z,99984.59
2022-09-15T04:24:17.852Z,99984.45
2022-09-15T04:24:48.272Z,99985.12
2022-09-15T04:25:18.693Z,99984.84
2022-09-15T04:25:49.111Z,99980.15
2022-09-15T04:26:19.530Z,99981.32
2022-09-15T04:26:49.950Z,99982.42
2022-09-15T04:27:20.371Z,99983.77
2022-09-15T04:27:50.791Z,99984.27
2022-09-15T04:28:21.211Z,99981.95
2022-09-15T04:28:51.629Z,99985.10
2022-09-15T04:29:22.070Z,99983.64
2022-09-15T04:29:52.490Z,99983.95
2022-09-15T04:30:22.910Z,99980.27
2022-09-15T04:30:53.329Z,99978.59
2022-09-15T04:31:23.828Z,99979.12
2022-09-15T04:31:54.422Z,99979.28
2022-09-15T04:32:24.808Z,99983.45
2022-09-15T04:32:55.232Z,99982.33
2022-09-15T04:33:25.659Z,99984.50
2022-09-15T04:33:56.079Z,99985.89
2022-09-15T04:34:26.534Z,99982.84
2022-09-15T04:34:56.938Z,99985.86
2022-09-15T04:35:27.359Z,99984.52
2022-09-15T04:35:57.783Z,99984.83
2022-09-15T04:36:28.232Z,99984.00
2022-09-15T04:36:58.663Z,99985.94
2022-09-15T04:37:29.081Z,99988.70
2022-09-15T04:37:59.499Z,99986.55
2022-09-15T04:38:29.920Z,99984.59
2022-09-15T04:39:00.347Z,99983.87
2022-09-15T04:39:30.786Z,99977.39
2022-09-15T04:40:01.286Z,99980.02
2022-09-15T04:40:31.743Z,99981.22
2022-09-15T04:41:02.127Z,99976.67
2022-09-15T04:41:32.546Z,99980.64
2022-09-15T04:42:02.971Z,99978.83
2022-09-15T04:42:33.404Z,99974.33
2022-09-15T04:43:03.841Z,99981.88
2022-09-15T04:43:34.249Z,99978.34
2022-09-15T04:44:04.668Z,99980.86
2022-09-15T04:44:35.106Z,99975.95
2022-09-15T04:45:05.523Z,99976.96
2022-09-15T04:45:35.945Z,99978.30
2022-09-15T04:46:06.366Z,99975.86
2022-09-15T04:46:36.837Z,99976.05
2022-09-15T04:47:07.385Z,99975.57
2022-09-15T04:47:37.819Z,99975.21
2022-09-15T04:48:08.255Z,99974.44
2022-09-15T04:48:38.673Z,99975.33
2022-09-15T04:49:09.091Z,99975.64
2022-09-15T04:49:39.550Z,99975.14
2022-09-15T04:50:09.951Z,99975.05
2022-09-15T04:50:40.367Z,99975.16
2022-09-15T04:51:10.800Z,99978.19
2022-09-15T04:51:41.205Z,99973.66
2022-09-15T04:52:11.627Z,99975.88
2022-09-15T04:52:42.047Z,99974.05
2022-09-15T04:53:12.476Z,99972.91
2022-09-15T04:53:42.899Z,99971.88
2022-09-15T04:54:13.316Z,99978.35
2022-09-15T04:54:43.763Z,99977.87
2022-09-15T04:55:14.183Z,99978.90
2022-09-15T04:55:44.601Z,99983.71
2022-09-15T04:56:15.026Z,99982.39
2022-09-15T04:56:45.443Z,99981.25
2022-09-15T04:57:15.863Z,99982.27
2022-09-15T04:57:46.285Z,99978.52
2022-09-15T04:58:16.706Z,99978.62
2022-09-15T04:58:47.122Z,99984.10
2022-09-15T04:59:17.548Z,99978.58
2022-09-15T04:59:47.990Z,99973.73
2022-09-15T05:00:18.409Z,99976.73
2022-09-15T05:00:48.889Z,99975.25
2022-09-15T05:01:19.356Z,99977.91
2022-09-15T05:01:49.857Z,99975.25
2022-09-15T05:02:20.295Z,99980.21
2022-09-15T05:02:50.665Z,99978.08
2022-09-15T05:03:21.087Z,99976.91
2022-09-15T05:03:51.506Z,99979.61
2022-09-15T05:04:21.926Z,99977.39
2022-09-15T05:04:52.390Z,99973.89
2022-09-15T05:05:22.787Z,99972.72
2022-09-15T05:05:53.221Z,99974.23
2022-09-15T05:06:23.643Z,99971.52
2022-09-15T05:06:54.064Z,99975.71
2022-09-15T05:07:24.485Z,99973.52
2022-09-15T05:07:54.904Z,99971.88
2022-09-15T05:08:25.323Z,99970.92
2022-09-15T05:08:55.741Z,99976.76
2022-09-15T05:09:26.163Z,99975.40
2022-09-15T05:09:56.596Z,99977.45
2022-09-15T05:10:27.033Z,99979.12
2022-09-15T05:10:57.437Z,99976.66
2022-09-15T05:11:27.861Z,99976.17
2022-09-15T05:11:58.279Z,99973.84
2022-09-15T05:12:28.707Z,99976.17
2022-09-15T05:12:59.131Z,99976.38
2022-09-15T05:13:29.552Z,99975.00
2022-09-15T05:13:59.966Z,99973.00
2022-09-15T05:14:30.387Z,99975.11
2022-09-15T05:15:00.834Z,99977.41
2022-09-15T05:15:31.258Z,99972.38
2022-09-15T05:16:01.741Z,99975.75
2022-09-15T05:16:32.212Z,99977.45
2022-09-15T05:17:02.649Z,99975.61
2022-09-15T05:17:33.071Z,99977.95
2022-09-15T05:18:03.488Z,99972.83
2022-09-15T05:18:33.906Z,99980.46
2022-09-15T05:19:04.327Z,99977.09
2022-09-15T05:19:34.748Z,99976.91
2022-09-15T05:20:05.208Z,99980.40
2022-09-15T05:20:35.613Z,99977.37
2022-09-15T05:21:06.033Z,99977.84
2022-09-15T05:21:36.463Z,99977.24
2022-09-15T05:22:06.886Z,99975.55
2022-09-15T05:22:41.672Z,99980.72
2022-09-15T05:23:12.367Z,99975.73
2022-09-15T05:23:42.793Z,99976.58
2022-09-15T05:24:13.214Z,99976.91
2022-09-15T05:24:43.635Z,99984.77
2022-09-15T05:25:14.070Z,99979.56
2022-09-15T05:25:44.490Z,99978.90
2022-09-15T05:26:14.916Z,99983.87
2022-09-15T05:26:45.336Z,99979.35
2022-09-15T05:27:15.755Z,99979.25
2022-09-15T05:27:46.176Z,99980.74
2022-09-15T05:28:16.596Z,99977.23
2022-09-15T05:28:47.018Z,99978.25
2022-09-15T05:29:17.443Z,99976.55
2022-09-15T05:29:47.857Z,99976.23
2022-09-15T05:30:36.801Z,99974.23
2022-09-15T05:30:53.616Z,99972.88
2022-09-15T05:31:24.136Z,99974.55
2022-09-15T05:31:54.660Z,99970.90
2022-09-15T05:32:25.077Z,99973.37
2022-09-15T05:32:55.501Z,99974.86
2022-09-15T05:33:25.921Z,99973.88
2022-09-15T05:33:56.339Z,99971.38
2022-09-15T05:34:26.765Z,99972.82
2022-09-15T05:34:57.193Z,99971.38
2022-09-15T05:35:27.646Z,99977.18
2022-09-15T05:35:58.051Z,99976.48
2022-09-15T05:36:28.479Z,99974.77
2022-09-15T05:36:58.902Z,99976.77
2022-09-15T05:37:29.316Z,99975.25
2022-09-15T05:37:59.742Z,99971.25
2022-09-15T05:38:30.163Z,99979.94
2022-09-15T05:39:00.582Z,99978.83
2022-09-15T05:39:31.035Z,99980.77
2022-09-15T05:40:05.155Z,99976.97
2022-09-15T05:40:36.797Z,99979.50
2022-09-15T05:41:07.217Z,99973.78
2022-09-15T05:41:37.637Z,99980.11
2022-09-15T05:42:08.061Z,99979.27
2022-09-15T05:42:38.484Z,99978.89
2022-09-15T05:43:08.903Z,99981.06
2022-09-15T05:43:39.329Z,99982.09
2022-09-15T05:44:09.745Z,99983.05
2022-09-15T05:44:40.167Z,99983.27
2022-09-15T05:45:10.602Z,99983.27
2022-09-15T05:45:41.041Z,99983.95
2022-09-15T05:46:11.516Z,99983.27
2022-09-15T05:46:41.922Z,99985.10
2022-09-15T05:47:12.301Z,99988.30
2022-09-15T05:47:42.723Z,99987.79
2022-09-15T05:48:13.145Z,99995.17
2022-09-15T05:48:43.564Z,99992.71
2022-09-15T05:49:13.986Z,99993.38
2022-09-15T05:49:44.406Z,99993.19
2022-09-15T05:50:14.831Z,99999.91
2022-09-15T05:50:45.357Z,99997.58
2022-09-15T05:51:15.706Z,100001.08
2022-09-15T05:51:46.125Z,99997.06
2022-09-15T05:52:16.547Z,99997.85
2022-09-15T05:52:46.978Z,99999.02
2022-09-15T05:53:17.404Z,100002.40
2022-09-15T05:53:47.823Z,100003.55
2022-09-15T05:54:18.245Z,99999.17
2022-09-15T05:54:48.665Z,99999.34
2022-09-15T05:55:19.088Z,100000.53
2022-09-15T05:55:49.705Z,100004.91
2022-09-15T05:56:20.129Z,100004.43
2022-09-15T05:56:50.546Z,99999.69